Dodgeville, WI

1:26 PM CST on February 01, 2015 (GMT -0600)
Platteville Municipal | Change Station
CLOSE
Current Station
Airport
Location: Platteville,
Elevation: 1024 ft
Nearby Weather Stations
Active Advisory: Winter Storm Warning Active Notice: Local Storm Report

Elev 1024 ft 42.69 °N, 90.44 °W | Updated 11 minutes ago

Snow
Snow
17 °F
Feels Like -1 °F
N
25
Wind Variable Wind from North
Gusts 34 mph

Today
High -- | Low -- °F
--% Chance of Precip.
Yesterday
High -- | Low -- °F
Precip. -- in
7:15 AM 5:13 PM
Waxing Gibbous, 96% visible
Pressure 29.88 in
Visibility 0.5 miles
Clouds Overcast 1100 ft
Windchill -1 °F
Dew Point 14 °F
Humidity 87%
Rainfall 0.03 in
Snow Depth Not available.
UV 1 out of 12
Pollen .10 out of 12
Air Quality Not available.
Flu Activity Not available.
METAR KPVB 011915Z AUTO 01022G30KT 1/2SM OVC011 M08/M10 A2988 RMK AO1 T10821100

More Conditions Fewer Conditions

Pressure 29.88 in
Visibility 0.5 miles
Clouds Overcast 1100 ft
Windchill -1 °F
Dew Point 14 °F
Humidity 87%
Rainfall 0.03 in
Snow Depth Not available.
UV 1 out of 12
Pollen .10 out of 12
Air Quality Not available.
Flu Activity Not available.
METAR KPVB 011915Z AUTO 01022G30KT 1/2SM OVC011 M08/M10 A2988 RMK AO1 T10821100

More Conditions Fewer Conditions

10-Day Weather Forecast

Almanac

Astronomy

Feb. 01, 2015 Rise Set
Actual Time
Civil Twilight
Nautical Twilight
Astronomical Twilight
Moon
Length of Visible Light
Length of Day
Tomorrow will be .
, % of the Moon is Illuminated

Today's Extremes

State Highs State Lows

Community

WunderPhotos

Upload Photos

1,792,461 photos uploaded!

WunderBlogs® & News

Nearby

Air Quality

  Air Quality AQ Index Pollutant
Not available.

Snow Depth

Station Depth Elevation

Earthquake Activity

City Distance Mag. Time & Date
Minimum magnitude displayed is 2.5.

Coastal Water Temperatures

Place Temperature

Nearby Weather Stations